createdAt,value
2023-04-02T00:00:03.943Z,180.31
2023-04-02T00:01:03.914Z,180.98
2023-04-02T00:02:03.960Z,185.53
2023-04-02T00:03:04.031Z,180.70
2023-04-02T00:04:03.959Z,167.94
2023-04-02T00:05:03.943Z,166.09
2023-04-02T00:06:03.991Z,159.68
2023-04-02T00:07:04.074Z,156.43
2023-04-02T00:08:04.014Z,163.61
2023-04-02T00:09:04.020Z,155.96
2023-04-02T00:10:04.052Z,159.40
2023-04-02T00:11:04.025Z,159.61
2023-04-02T00:12:04.096Z,156.31
2023-04-02T00:13:04.148Z,149.75
2023-04-02T00:14:04.114Z,155.05
2023-04-02T00:15:04.174Z,152.15
2023-04-02T00:16:04.150Z,152.63
2023-04-02T00:17:04.179Z,152.93
2023-04-02T00:18:04.256Z,155.59
2023-04-02T00:19:04.211Z,152.38
2023-04-02T00:20:04.207Z,158.06
2023-04-02T00:21:04.255Z,151.20
2023-04-02T00:22:04.264Z,159.41
2023-04-02T00:23:04.276Z,159.85
2023-04-02T00:24:04.278Z,161.97
2023-04-02T00:25:04.335Z,161.91
2023-04-02T00:26:04.314Z,162.43
2023-04-02T00:27:04.373Z,169.60
2023-04-02T00:28:04.372Z,157.73
2023-04-02T00:29:04.434Z,167.87
2023-04-02T00:30:04.428Z,164.91
2023-04-02T00:31:04.432Z,166.18
2023-04-02T00:32:04.477Z,171.31
2023-04-02T00:33:04.513Z,171.09
2023-04-02T00:34:04.521Z,168.43
2023-04-02T00:35:04.523Z,172.45
2023-04-02T00:36:04.529Z,171.90
2023-04-02T00:37:04.505Z,170.37
2023-04-02T00:38:04.525Z,166.58
2023-04-02T00:39:04.535Z,170.86
2023-04-02T00:40:04.596Z,175.69
2023-04-02T00:41:04.619Z,173.21
2023-04-02T00:42:04.666Z,172.23
2023-04-02T00:43:04.656Z,172.57
2023-04-02T00:44:04.615Z,180.17
2023-04-02T00:45:04.645Z,177.25
2023-04-02T00:46:04.677Z,181.57
2023-04-02T00:47:04.686Z,183.26
2023-04-02T00:48:04.741Z,187.89
2023-04-02T00:49:04.707Z,181.68
2023-04-02T00:50:04.690Z,189.20
2023-04-02T00:51:04.772Z,190.81
2023-04-02T00:52:04.786Z,187.77
2023-04-02T00:53:04.792Z,193.58
2023-04-02T00:54:04.795Z,188.72
2023-04-02T00:55:04.811Z,189.30
2023-04-02T00:56:04.801Z,193.60
2023-04-02T00:57:04.901Z,195.14
2023-04-02T00:58:04.815Z,195.93
2023-04-02T00:59:04.875Z,202.98
2023-04-02T01:00:04.832Z,200.37
2023-04-02T01:01:04.934Z,199.77
2023-04-02T01:02:04.897Z,198.44
2023-04-02T01:03:05.000Z,206.19
2023-04-02T01:04:04.904Z,201.33
2023-04-02T01:05:04.971Z,210.46
2023-04-02T01:06:05.027Z,208.93
2023-04-02T01:07:05.010Z,214.57
2023-04-02T01:08:05.008Z,216.38
2023-04-02T01:09:05.004Z,210.40
2023-04-02T01:10:05.063Z,218.81
2023-04-02T01:11:05.057Z,213.89
2023-04-02T01:12:05.062Z,218.63
2023-04-02T01:13:05.050Z,213.65
2023-04-02T01:14:05.092Z,217.75
2023-04-02T01:15:05.104Z,210.98
2023-04-02T01:16:05.158Z,214.91
2023-04-02T01:17:05.153Z,217.52
2023-04-02T01:18:05.184Z,213.83
2023-04-02T01:19:05.174Z,215.30
2023-04-02T01:20:05.200Z,214.18
2023-04-02T01:21:05.182Z,215.08
2023-04-02T01:22:05.184Z,219.52
2023-04-02T01:23:05.260Z,216.38
2023-04-02T01:24:05.250Z,215.20
2023-04-02T01:25:05.253Z,219.43
2023-04-02T01:26:05.261Z,219.21
2023-04-02T01:27:05.338Z,216.26
2023-04-02T01:28:05.345Z,224.09
2023-04-02T01:29:05.344Z,218.18
2023-04-02T01:30:05.355Z,220.39
2023-04-02T01:31:05.396Z,221.05
2023-04-02T01:32:05.406Z,215.65
2023-04-02T01:33:05.442Z,213.66
2023-04-02T01:34:05.394Z,223.82
2023-04-02T01:35:05.437Z,226.96
2023-04-02T01:36:05.585Z,220.69
2023-04-02T01:37:05.445Z,225.24
2023-04-02T01:38:05.501Z,223.47
2023-04-02T01:39:05.607Z,223.77
2023-04-02T01:40:05.558Z,219.88
2023-04-02T01:41:05.537Z,221.75
2023-04-02T01:42:05.527Z,223.33
2023-04-02T01:43:05.594Z,228.83
2023-04-02T01:44:05.592Z,229.86
2023-04-02T01:45:05.594Z,227.71
2023-04-02T01:46:05.683Z,223.71
2023-04-02T01:47:05.668Z,225.15
2023-04-02T01:48:05.711Z,224.42
2023-04-02T01:49:05.700Z,231.47
2023-04-02T01:50:05.696Z,228.77
2023-04-02T01:51:05.686Z,226.47
2023-04-02T01:52:05.693Z,227.13
2023-04-02T01:53:05.764Z,226.85
2023-04-02T01:54:05.764Z,225.98
2023-04-02T01:55:05.762Z,224.84
2023-04-02T01:56:05.771Z,224.51
2023-04-02T01:57:05.861Z,232.10
2023-04-02T01:58:05.836Z,228.96
2023-04-02T01:59:05.861Z,224.70
2023-04-02T02:00:05.881Z,227.20
2023-04-02T02:01:05.967Z,227.12
2023-04-02T02:02:05.985Z,224.49
2023-04-02T02:03:06.014Z,225.36
2023-04-02T02:04:06.355Z,227.26
2023-04-02T02:05:06.030Z,230.40
2023-04-02T02:06:06.011Z,227.18
2023-04-02T02:07:06.014Z,225.80
2023-04-02T02:08:05.964Z,229.70
2023-04-02T02:09:06.015Z,229.94
2023-04-02T02:10:06.044Z,228.80
2023-04-02T02:11:06.030Z,234.96
2023-04-02T02:12:06.094Z,231.75
2023-04-02T02:13:06.090Z,229.34
2023-04-02T02:14:06.092Z,234.96
2023-04-02T02:15:06.102Z,223.93
2023-04-02T02:16:06.173Z,231.44
2023-04-02T02:17:06.176Z,231.17
2023-04-02T02:18:06.144Z,223.23
2023-04-02T02:19:06.226Z,226.95
2023-04-02T02:20:06.206Z,228.86
2023-04-02T02:21:06.264Z,227.54
2023-04-02T02:22:06.241Z,229.35
2023-04-02T02:23:06.236Z,227.45
2023-04-02T02:24:06.270Z,224.64
2023-04-02T02:25:06.286Z,229.45
2023-04-02T02:26:06.368Z,230.28
2023-04-02T02:27:06.381Z,227.09
2023-04-02T02:28:06.374Z,226.82
2023-04-02T02:29:06.390Z,225.33
2023-04-02T02:30:06.397Z,226.16
2023-04-02T02:31:06.426Z,223.54
2023-04-02T02:32:06.547Z,220.52
2023-04-02T02:33:06.540Z,229.69
2023-04-02T02:34:06.448Z,228.72
2023-04-02T02:35:06.519Z,228.17
2023-04-02T02:36:06.547Z,229.49
2023-04-02T02:37:06.501Z,227.43
2023-04-02T02:38:06.605Z,223.95
2023-04-02T02:39:06.583Z,224.16
2023-04-02T02:40:06.644Z,228.09
2023-04-02T02:41:06.588Z,230.52
2023-04-02T02:42:06.626Z,231.48
2023-04-02T02:43:06.722Z,228.84
2023-04-02T02:44:06.689Z,229.55
2023-04-02T02:45:06.758Z,229.70
2023-04-02T02:46:06.732Z,226.97
2023-04-02T02:47:06.715Z,228.50
2023-04-02T02:48:06.799Z,229.70
2023-04-02T02:49:06.772Z,224.22
2023-04-02T02:50:06.805Z,225.58
2023-04-02T02:51:06.834Z,227.40
2023-04-02T02:52:06.782Z,227.81
2023-04-02T02:53:06.826Z,229.64
2023-04-02T02:54:06.855Z,225.07
2023-04-02T02:55:06.892Z,230.99
2023-04-02T02:56:06.899Z,227.33
2023-04-02T02:57:06.942Z,232.92
2023-04-02T02:58:06.931Z,228.49
2023-04-02T02:59:06.934Z,228.28
2023-04-02T03:00:07.002Z,226.83
2023-04-02T03:01:07.023Z,229.60
2023-04-02T03:02:07.183Z,223.41
2023-04-02T03:03:07.195Z,232.08
2023-04-02T03:04:07.131Z,225.40
2023-04-02T03:05:07.065Z,225.64
2023-04-02T03:06:07.073Z,227.01
2023-04-02T03:07:07.141Z,227.48
2023-04-02T03:08:07.223Z,225.81
2023-04-02T03:09:07.159Z,220.62
2023-04-02T03:10:07.277Z,230.69
2023-04-02T03:11:07.198Z,227.87
2023-04-02T03:12:07.294Z,225.60
2023-04-02T03:13:07.320Z,227.65
2023-04-02T03:14:07.266Z,226.60
2023-04-02T03:15:07.309Z,224.26
2023-04-02T03:16:07.396Z,223.69
2023-04-02T03:17:07.417Z,223.16
2023-04-02T03:18:07.451Z,223.70
2023-04-02T03:19:07.390Z,220.65
2023-04-02T03:20:07.428Z,218.73
2023-04-02T03:21:07.433Z,218.85
2023-04-02T03:22:07.421Z,221.51
2023-04-02T03:23:07.473Z,224.86
2023-04-02T03:24:07.521Z,226.71
2023-04-02T03:25:07.478Z,222.78
2023-04-02T03:26:07.502Z,214.28
2023-04-02T03:27:07.575Z,224.70
2023-04-02T03:28:07.625Z,224.05
2023-04-02T03:29:07.649Z,214.66
2023-04-02T03:30:07.645Z,220.29
2023-04-02T03:31:07.795Z,220.71
2023-04-02T03:32:07.680Z,221.13
2023-04-02T03:33:07.755Z,224.05
2023-04-02T03:34:07.707Z,221.08
2023-04-02T03:35:07.772Z,223.15
2023-04-02T03:36:07.772Z,207.57
2023-04-02T03:37:07.849Z,224.07
2023-04-02T03:38:07.785Z,218.78
2023-04-02T03:39:07.911Z,221.40
2023-04-02T03:40:07.867Z,222.42
2023-04-02T03:41:07.938Z,220.75
2023-04-02T03:42:07.886Z,223.72
2023-04-02T03:43:07.927Z,215.63
2023-04-02T03:44:07.951Z,215.57
2023-04-02T03:45:08.366Z,221.52
2023-04-02T03:46:08.099Z,218.34
2023-04-02T03:47:08.027Z,221.66
2023-04-02T03:48:08.030Z,212.85
2023-04-02T03:49:08.084Z,216.37
2023-04-02T03:50:08.112Z,219.52
2023-04-02T03:51:08.200Z,217.29
2023-04-02T03:52:08.143Z,219.23
2023-04-02T03:53:08.166Z,213.06
2023-04-02T03:54:08.166Z,221.78
2023-04-02T03:55:08.203Z,208.15
2023-04-02T03:56:08.222Z,215.07
2023-04-02T03:57:08.316Z,214.37
2023-04-02T03:58:08.286Z,219.51
2023-04-02T03:59:08.293Z,217.30
2023-04-02T04:00:08.361Z,217.13
2023-04-02T04:01:08.345Z,214.60
2023-04-02T04:02:08.393Z,214.15
2023-04-02T04:03:08.423Z,209.84
2023-04-02T04:04:08.456Z,216.56
2023-04-02T04:05:08.503Z,216.24
2023-04-02T04:06:08.445Z,212.80
2023-04-02T04:07:08.512Z,217.51
2023-04-02T04:08:08.510Z,208.41
2023-04-02T04:09:08.521Z,212.51
2023-04-02T04:10:08.526Z,217.04
2023-04-02T04:11:08.643Z,211.37
2023-04-02T04:12:08.560Z,215.18
2023-04-02T04:13:08.604Z,206.79
2023-04-02T04:14:08.741Z,202.77
2023-04-02T04:15:08.672Z,213.07
2023-04-02T04:16:08.672Z,206.61
2023-04-02T04:17:08.728Z,212.28
2023-04-02T04:18:08.771Z,214.45
2023-04-02T04:19:08.750Z,208.32
2023-04-02T04:20:08.757Z,210.70
2023-04-02T04:21:08.766Z,210.54
2023-04-02T04:22:08.825Z,211.05
2023-04-02T04:23:08.817Z,209.51
2023-04-02T04:24:08.834Z,210.80
2023-04-02T04:25:08.991Z,205.58
2023-04-02T04:26:08.903Z,207.35
2023-04-02T04:27:09.012Z,200.35
2023-04-02T04:28:08.972Z,206.54
2023-04-02T04:29:08.971Z,206.96
2023-04-02T04:30:08.973Z,209.92
2023-04-02T04:31:09.032Z,211.26
2023-04-02T04:32:09.098Z,210.26
2023-04-02T04:33:09.107Z,207.98
2023-04-02T04:34:09.085Z,211.56
2023-04-02T04:35:09.116Z,209.97
2023-04-02T04:36:09.174Z,208.81
2023-04-02T04:37:09.122Z,205.34
2023-04-02T04:38:09.170Z,205.37
2023-04-02T04:39:09.169Z,208.41
2023-04-02T04:40:09.213Z,209.49
2023-04-02T04:41:09.182Z,204.10
2023-04-02T04:42:09.262Z,208.43
2023-04-02T04:43:09.278Z,206.49
2023-04-02T04:44:09.279Z,204.06
2023-04-02T04:45:09.281Z,209.07
2023-04-02T04:46:09.347Z,202.20
2023-04-02T04:47:09.342Z,208.89
2023-04-02T04:48:09.408Z,209.26
2023-04-02T04:49:09.409Z,203.12
2023-04-02T04:50:09.421Z,202.15
2023-04-02T04:51:09.462Z,208.04
2023-04-02T04:52:09.494Z,207.38
2023-04-02T04:53:09.545Z,206.22
2023-04-02T04:54:09.567Z,205.58
2023-04-02T04:55:09.585Z,204.84
2023-04-02T04:56:18.848Z,208.88
2023-04-02T04:57:10.632Z,209.05
2023-04-02T04:58:09.585Z,208.43
2023-04-02T04:59:09.515Z,207.80
2023-04-02T05:00:09.608Z,208.91
2023-04-02T05:01:09.632Z,207.92
2023-04-02T05:02:09.547Z,208.03
2023-04-02T05:03:09.601Z,204.26
2023-04-02T05:04:09.575Z,198.10
2023-04-02T05:05:09.510Z,202.58
2023-04-02T05:06:09.513Z,202.69
2023-04-02T05:07:09.465Z,204.27
2023-04-02T05:08:09.468Z,198.50
2023-04-02T05:09:09.482Z,202.09
2023-04-02T05:10:09.518Z,203.34
2023-04-02T05:11:09.458Z,202.00
2023-04-02T05:12:09.476Z,202.67
2023-04-02T05:13:09.472Z,204.50
2023-04-02T05:14:09.495Z,202.35
2023-04-02T05:15:09.564Z,199.90
2023-04-02T05:16:09.591Z,197.93
2023-04-02T05:17:09.557Z,201.64
2023-04-02T05:18:09.610Z,199.65
2023-04-02T05:19:09.676Z,200.01
2023-04-02T05:20:09.672Z,199.53
2023-04-02T05:21:09.686Z,199.33
2023-04-02T05:22:09.688Z,197.25
2023-04-02T05:23:09.676Z,193.18
2023-04-02T05:24:09.749Z,198.24
2023-04-02T05:25:09.744Z,193.86
2023-04-02T05:26:09.765Z,197.63
2023-04-02T05:27:09.873Z,201.02
2023-04-02T05:28:09.809Z,201.18
2023-04-02T05:29:09.840Z,196.84
2023-04-02T05:30:09.894Z,199.22
2023-04-02T05:31:09.920Z,195.51
2023-04-02T05:32:09.910Z,199.27
2023-04-02T05:33:09.966Z,201.80
2023-04-02T05:34:09.964Z,189.79
2023-04-02T05:35:09.964Z,202.18
2023-04-02T05:36:10.026Z,202.10
2023-04-02T05:37:10.041Z,195.02
2023-04-02T05:38:10.086Z,195.73
2023-04-02T05:39:10.124Z,196.47
2023-04-02T05:40:10.114Z,191.20
2023-04-02T05:41:10.111Z,195.26
2023-04-02T05:42:10.190Z,194.95
2023-04-02T05:43:10.193Z,194.53
2023-04-02T05:44:10.199Z,200.54
2023-04-02T05:45:10.264Z,195.18
2023-04-02T05:46:10.272Z,197.05
2023-04-02T05:47:10.278Z,197.00
2023-04-02T05:48:10.278Z,201.09
2023-04-02T05:49:10.334Z,193.06
2023-04-02T05:50:10.352Z,196.34
2023-04-02T05:51:10.351Z,190.36
2023-04-02T05:52:10.458Z,194.05
2023-04-02T05:53:10.476Z,189.74
2023-04-02T05:54:10.472Z,188.35
2023-04-02T05:55:10.488Z,186.65
2023-04-02T05:56:10.527Z,193.03
2023-04-02T05:57:10.563Z,187.19
2023-04-02T05:59:10.556Z,195.89
2023-04-02T06:00:10.614Z,195.07
2023-04-02T06:01:10.519Z,187.41
2023-04-02T06:02:10.564Z,194.06
2023-04-02T06:03:10.712Z,194.83
2023-04-02T06:04:10.629Z,191.48
2023-04-02T06:05:10.498Z,191.47
2023-04-02T06:06:10.479Z,183.34
2023-04-02T06:07:10.519Z,191.42
2023-04-02T06:08:10.524Z,190.47
2023-04-02T06:09:10.466Z,194.30
2023-04-02T06:10:10.459Z,191.32
2023-04-02T06:11:10.509Z,191.21
2023-04-02T06:12:10.559Z,190.67
2023-04-02T06:13:10.529Z,184.08
2023-04-02T06:14:10.438Z,188.43
2023-04-02T06:15:10.455Z,188.60
2023-04-02T06:16:10.468Z,185.59
2023-04-02T06:17:10.419Z,187.31
2023-04-02T06:18:10.397Z,187.20
2023-04-02T06:19:10.363Z,186.04
2023-04-02T06:20:10.373Z,186.15
2023-04-02T06:21:10.447Z,185.43
2023-04-02T06:22:10.479Z,185.11
2023-04-02T06:23:10.394Z,185.04
2023-04-02T06:24:10.371Z,185.91
2023-04-02T06:25:10.326Z,185.48
2023-04-02T06:26:10.398Z,182.90
2023-04-02T06:27:10.386Z,184.21
2023-04-02T06:28:10.505Z,185.83
2023-04-02T06:29:10.346Z,182.41
2023-04-02T06:30:10.422Z,185.27
2023-04-02T06:31:10.363Z,178.52
2023-04-02T06:32:10.324Z,178.03
2023-04-02T06:33:10.332Z,177.31
2023-04-02T06:34:10.341Z,181.33
2023-04-02T06:35:10.286Z,183.09
2023-04-02T06:36:10.313Z,183.89
2023-04-02T06:37:10.304Z,180.38
2023-04-02T06:38:10.268Z,178.64
2023-04-02T06:39:10.261Z,179.86
2023-04-02T06:40:10.275Z,172.94
2023-04-02T06:41:10.283Z,182.65
2023-04-02T06:42:10.319Z,185.56
2023-04-02T06:43:10.292Z,181.03
2023-04-02T06:44:10.248Z,180.55
2023-04-02T06:45:10.248Z,181.17
2023-04-02T06:46:10.245Z,182.39
2023-04-02T06:47:10.218Z,175.56
2023-04-02T06:48:10.299Z,178.63
2023-04-02T06:49:10.240Z,179.33
2023-04-02T06:50:10.176Z,178.87
2023-04-02T06:51:10.193Z,178.10
2023-04-02T06:52:10.201Z,174.50
2023-04-02T06:53:10.190Z,176.12
2023-04-02T06:54:10.170Z,178.39
2023-04-02T06:55:10.222Z,174.73
2023-04-02T06:56:10.185Z,171.44
2023-04-02T06:57:10.231Z,174.01
2023-04-02T06:58:10.152Z,170.15
2023-04-02T06:59:10.132Z,167.66
2023-04-02T07:00:10.143Z,169.01
2023-04-02T07:01:10.139Z,168.00
2023-04-02T07:02:10.127Z,165.94
2023-04-02T07:03:10.340Z,166.99
2023-04-02T07:04:10.202Z,164.12
2023-04-02T07:05:10.190Z,163.74
2023-04-02T07:06:10.083Z,161.93
2023-04-02T07:07:10.085Z,163.79
2023-04-02T07:08:10.109Z,157.46
2023-04-02T07:09:10.063Z,166.32
2023-04-02T07:10:10.062Z,154.02
2023-04-02T07:11:10.073Z,157.07
2023-04-02T07:12:10.092Z,155.65
2023-04-02T07:13:10.023Z,156.16
2023-04-02T07:14:10.059Z,153.48
2023-04-02T07:15:10.047Z,151.63
2023-04-02T07:16:10.060Z,154.20
2023-04-02T07:17:09.990Z,154.69
2023-04-02T07:18:10.114Z,158.85
2023-04-02T07:19:09.985Z,157.70
2023-04-02T07:20:09.995Z,160.04
2023-04-02T07:21:09.965Z,160.17
2023-04-02T07:22:10.020Z,158.70
2023-04-02T07:23:09.980Z,162.58
2023-04-02T07:24:09.983Z,156.36
2023-04-02T07:25:10.006Z,157.56
2023-04-02T07:26:09.928Z,159.27
2023-04-02T07:27:09.965Z,155.48
2023-04-02T07:28:09.950Z,151.52
2023-04-02T07:29:09.925Z,153.53
2023-04-02T07:30:09.892Z,153.13
2023-04-02T07:31:09.974Z,149.69
2023-04-02T07:32:09.914Z,153.72
2023-04-02T07:33:09.921Z,150.77
2023-04-02T07:34:09.872Z,150.87
2023-04-02T07:35:09.878Z,150.11
2023-04-02T07:36:09.871Z,153.42
2023-04-02T07:37:09.844Z,149.91
2023-04-02T07:38:09.901Z,151.96
2023-04-02T07:39:09.863Z,150.29
2023-04-02T07:40:09.821Z,154.19
2023-04-02T07:41:09.869Z,149.00
2023-04-02T07:42:09.797Z,148.81
2023-04-02T07:43:09.873Z,151.75
2023-04-02T07:44:09.822Z,147.94
2023-04-02T07:45:09.811Z,150.29
2023-04-02T07:46:09.889Z,149.75
2023-04-02T07:47:09.778Z,151.45
2023-04-02T07:48:09.909Z,149.91
2023-04-02T07:49:09.825Z,148.35
2023-04-02T07:50:09.915Z,152.41
2023-04-02T07:51:09.870Z,149.96
2023-04-02T07:52:09.872Z,148.89
2023-04-02T07:53:09.957Z,145.34
2023-04-02T07:54:09.956Z,149.44
2023-04-02T07:55:10.015Z,149.07
2023-04-02T07:56:10.043Z,149.40
2023-04-02T07:57:10.102Z,148.92
2023-04-02T07:58:10.087Z,152.23
2023-04-02T07:59:10.087Z,148.24
2023-04-02T08:00:10.039Z,150.98
2023-04-02T08:01:10.018Z,151.61
2023-04-02T08:02:10.048Z,150.33
2023-04-02T08:03:10.170Z,148.45
2023-04-02T08:04:10.152Z,146.15
2023-04-02T08:05:10.007Z,148.45
2023-04-02T08:06:10.019Z,146.39
2023-04-02T08:07:09.977Z,143.76
2023-04-02T08:08:09.988Z,145.14
2023-04-02T08:09:09.966Z,149.92
2023-04-02T08:10:10.008Z,151.55
2023-04-02T08:11:09.984Z,146.80
2023-04-02T08:12:09.998Z,147.28
2023-04-02T08:13:09.967Z,148.59
2023-04-02T08:14:10.015Z,148.94
2023-04-02T08:15:09.929Z,145.27
2023-04-02T08:16:09.963Z,147.75
2023-04-02T08:17:09.914Z,149.33
2023-04-02T08:18:09.962Z,146.84
2023-04-02T08:19:09.966Z,149.80
2023-04-02T08:20:09.910Z,145.62
2023-04-02T08:21:10.109Z,140.02
2023-04-02T08:22:09.882Z,145.91
2023-04-02T08:23:09.891Z,146.94
2023-04-02T08:24:09.886Z,144.92
2023-04-02T08:25:09.913Z,141.21
2023-04-02T08:26:09.874Z,146.08
2023-04-02T08:27:09.855Z,146.86
2023-04-02T08:28:09.809Z,146.26
2023-04-02T08:29:09.878Z,143.98
2023-04-02T08:30:09.847Z,145.67
2023-04-02T08:31:09.988Z,146.27
2023-04-02T08:32:09.853Z,145.83
2023-04-02T08:33:10.049Z,145.82
2023-04-02T08:34:10.009Z,146.51
2023-04-02T08:35:10.054Z,141.36
2023-04-02T08:36:10.168Z,142.12
2023-04-02T08:37:10.164Z,142.26
2023-04-02T08:38:10.262Z,143.74
2023-04-02T08:39:10.306Z,145.77
2023-04-02T08:40:10.366Z,143.86
2023-04-02T08:41:10.442Z,144.27
2023-04-02T08:42:10.469Z,144.77
2023-04-02T08:43:10.544Z,141.22
2023-04-02T08:44:10.597Z,144.80
2023-04-02T08:45:23.426Z,141.43
2023-04-02T08:46:11.674Z,141.57
2023-04-02T08:47:10.670Z,142.03
2023-04-02T08:48:10.770Z,142.70
2023-04-02T08:49:10.658Z,135.85
2023-04-02T08:50:10.626Z,146.67
2023-04-02T08:51:10.641Z,142.41
2023-04-02T08:52:10.646Z,141.33
2023-04-02T08:53:10.629Z,143.11
2023-04-02T08:54:10.582Z,141.04
2023-04-02T08:55:10.643Z,141.90
2023-04-02T08:56:10.693Z,141.95
2023-04-02T08:57:10.743Z,139.19
2023-04-02T08:58:10.812Z,139.79
2023-04-02T08:59:10.860Z,145.33
2023-04-02T09:00:10.947Z,139.66
2023-04-02T09:01:10.989Z,143.96
2023-04-02T09:02:11.026Z,141.04
2023-04-02T09:03:11.215Z,142.79
2023-04-02T09:04:11.177Z,143.10
2023-04-02T09:05:11.214Z,140.39
2023-04-02T09:06:11.281Z,141.26
2023-04-02T09:07:11.310Z,142.71
2023-04-02T09:08:11.365Z,140.98
2023-04-02T09:09:11.451Z,145.11
2023-04-02T09:10:11.501Z,141.49
2023-04-02T09:11:11.538Z,142.51
2023-04-02T09:12:11.605Z,142.27
2023-04-02T09:13:11.634Z,137.14
2023-04-02T09:14:11.750Z,140.47
2023-04-02T09:15:11.783Z,140.92
2023-04-02T09:16:11.818Z,138.01
2023-04-02T09:17:11.865Z,139.99
2023-04-02T09:18:11.988Z,138.54
2023-04-02T09:19:11.979Z,134.28
2023-04-02T09:20:12.099Z,138.13
2023-04-02T09:21:12.053Z,137.12
2023-04-02T09:22:12.240Z,137.54
2023-04-02T09:23:12.179Z,137.52
2023-04-02T09:24:12.265Z,134.98
2023-04-02T09:25:12.334Z,134.49
2023-04-02T09:26:12.366Z,135.71
2023-04-02T09:27:12.425Z,135.71
2023-04-02T09:28:12.484Z,134.08
2023-04-02T09:29:12.528Z,133.86
2023-04-02T09:30:12.629Z,132.22
2023-04-02T09:31:12.676Z,129.96
2023-04-02T09:32:12.712Z,133.53
2023-04-02T09:33:12.787Z,134.37
2023-04-02T09:34:12.833Z,134.67
2023-04-02T09:35:24.679Z,130.03
2023-04-02T09:36:15.685Z,130.43
2023-04-02T09:37:12.895Z,131.54
2023-04-02T09:38:12.863Z,130.51
2023-04-02T09:39:12.837Z,132.16
2023-04-02T09:40:12.854Z,130.81
2023-04-02T09:41:12.822Z,133.37
2023-04-02T09:42:12.866Z,126.94
2023-04-02T09:43:12.835Z,131.80
2023-04-02T09:44:12.848Z,132.76
2023-04-02T09:45:12.820Z,129.50
2023-04-02T09:46:12.861Z,128.18
2023-04-02T09:47:12.790Z,129.50
2023-04-02T09:48:12.850Z,126.14
2023-04-02T09:49:12.777Z,126.48
2023-04-02T09:50:12.790Z,126.33
2023-04-02T09:51:12.754Z,125.90
2023-04-02T09:52:12.774Z,121.09
2023-04-02T09:53:12.806Z,121.83
2023-04-02T09:54:12.766Z,120.79
2023-04-02T09:55:12.743Z,117.66
2023-04-02T09:56:12.721Z,118.27
2023-04-02T09:57:12.773Z,118.54
2023-04-02T09:58:12.702Z,112.86
2023-04-02T09:59:12.802Z,116.78
2023-04-02T10:00:25.436Z,118.78
2023-04-02T10:01:13.758Z,119.08
2023-04-02T10:02:12.707Z,119.18
2023-04-02T10:03:12.701Z,118.50
2023-04-02T10:04:12.784Z,118.90
2023-04-02T10:05:13.178Z,115.97
2023-04-02T10:06:12.694Z,115.37
2023-04-02T10:07:12.699Z,118.36
2023-04-02T10:08:12.650Z,116.01
2023-04-02T10:09:12.659Z,113.35
2023-04-02T10:10:12.749Z,117.71
2023-04-02T10:11:12.699Z,113.37
2023-04-02T10:12:12.687Z,115.91
2023-04-02T10:13:12.784Z,111.45
2023-04-02T10:14:12.820Z,113.64
2023-04-02T10:15:12.884Z,111.08
2023-04-02T10:16:13.034Z,111.44
2023-04-02T10:17:13.094Z,112.08
2023-04-02T10:18:13.115Z,111.26
2023-04-02T10:19:13.131Z,114.29
2023-04-02T10:20:13.215Z,109.69
2023-04-02T10:21:13.264Z,106.30
2023-04-02T10:22:13.360Z,108.84
2023-04-02T10:23:13.369Z,107.76
2023-04-02T10:24:13.482Z,108.94
2023-04-02T10:25:13.519Z,105.74
2023-04-02T10:26:13.609Z,104.72
2023-04-02T10:27:13.616Z,106.44
2023-04-02T10:28:13.652Z,104.28
2023-04-02T10:29:13.764Z,104.50
2023-04-02T10:30:13.843Z,106.05
2023-04-02T10:31:13.944Z,108.03
2023-04-02T10:32:13.979Z,103.31
2023-04-02T10:33:14.034Z,105.98
2023-04-02T10:34:14.123Z,104.49
2023-04-02T10:35:14.110Z,104.55
2023-04-02T10:36:14.251Z,106.30
2023-04-02T10:37:14.288Z,106.75
2023-04-02T10:38:14.414Z,105.84
2023-04-02T10:39:14.344Z,100.72
2023-04-02T10:40:14.461Z,101.21
2023-04-02T10:41:14.562Z,98.94
2023-04-02T10:42:14.650Z,101.69
2023-04-02T10:43:14.635Z,98.07
2023-04-02T10:44:20.226Z,96.53
2023-04-02T10:45:15.697Z,91.85
2023-04-02T10:46:14.835Z,73.36
2023-04-02T10:47:14.710Z,80.88
2023-04-02T10:48:14.675Z,81.78
2023-04-02T10:49:14.774Z,85.03
2023-04-02T10:50:14.706Z,86.74
2023-04-02T10:51:14.774Z,82.98
2023-04-02T10:52:14.655Z,85.19
2023-04-02T10:53:14.646Z,87.27
2023-04-02T10:54:14.719Z,82.73
2023-04-02T10:55:14.776Z,86.81
2023-04-02T10:56:14.882Z,88.44
2023-04-02T10:57:14.917Z,83.83
2023-04-02T10:58:14.956Z,91.17
2023-04-02T10:59:14.993Z,91.71
2023-04-02T11:00:15.113Z,90.45
2023-04-02T11:01:15.214Z,92.66
2023-04-02T11:02:15.222Z,86.01
2023-04-02T11:03:15.435Z,92.04
2023-04-02T11:04:15.343Z,90.05
2023-04-02T11:05:15.418Z,90.50
2023-04-02T11:06:15.480Z,89.88
2023-04-02T11:07:15.490Z,88.79
2023-04-02T11:08:15.568Z,89.83
2023-04-02T11:09:15.626Z,91.54
2023-04-02T11:10:15.688Z,92.50
2023-04-02T11:11:15.796Z,89.78
2023-04-02T11:12:15.869Z,94.20
2023-04-02T11:13:15.919Z,85.86
2023-04-02T11:14:15.987Z,86.82
2023-04-02T11:15:16.075Z,82.63
2023-04-02T11:16:16.222Z,82.69
2023-04-02T11:17:16.177Z,75.96
2023-04-02T11:18:16.152Z,66.60
2023-04-02T11:19:16.260Z,64.43
2023-04-02T11:20:16.329Z,60.18
2023-04-02T11:21:16.377Z,68.09
2023-04-02T11:22:16.435Z,78.74
2023-04-02T11:23:16.518Z,72.56
2023-04-02T11:24:16.558Z,80.25
2023-04-02T11:25:16.612Z,82.28
2023-04-02T11:26:16.678Z,87.27
2023-04-02T11:27:16.714Z,85.07
2023-04-02T11:28:16.792Z,90.29
2023-04-02T11:29:16.841Z,91.79
2023-04-02T11:30:16.928Z,87.00
2023-04-02T11:31:17.053Z,74.97
2023-04-02T11:32:17.071Z,66.33
2023-04-02T11:33:23.559Z,49.90
2023-04-02T11:34:18.101Z,50.26
2023-04-02T11:35:17.084Z,52.66
2023-04-02T11:36:17.119Z,57.67
2023-04-02T11:37:17.100Z,70.08
2023-04-02T11:38:17.076Z,85.32
2023-04-02T11:39:17.803Z,82.73
2023-04-02T11:40:17.132Z,84.69
2023-04-02T11:41:17.202Z,84.33
2023-04-02T11:42:17.298Z,83.65
2023-04-02T11:43:17.347Z,86.55
2023-04-02T11:44:17.417Z,87.97
2023-04-02T11:45:19.117Z,87.32
2023-04-02T11:46:17.457Z,92.82
2023-04-02T11:47:17.464Z,93.18
2023-04-02T11:48:17.435Z,94.17
2023-04-02T11:49:17.386Z,96.03
2023-04-02T11:50:17.393Z,100.04
2023-04-02T11:51:18.878Z,101.82
2023-04-02T11:52:17.403Z,102.01
2023-04-02T11:53:17.377Z,102.61
2023-04-02T11:54:17.386Z,102.61
2023-04-02T11:55:17.324Z,104.64
2023-04-02T11:56:17.341Z,106.21
2023-04-02T11:57:18.449Z,106.52
2023-04-02T11:58:17.511Z,106.65
2023-04-02T11:59:17.305Z,107.16
2023-04-02T12:00:18.167Z,108.19
2023-04-02T12:01:17.366Z,109.43
2023-04-02T12:02:17.580Z,110.39
2023-04-02T12:03:17.499Z,114.67
2023-04-02T12:04:17.545Z,110.28
2023-04-02T12:05:17.639Z,112.52
2023-04-02T12:06:17.613Z,114.30
2023-04-02T12:07:17.731Z,115.16
2023-04-02T12:08:17.721Z,113.82
2023-04-02T12:09:17.873Z,114.02
2023-04-02T12:10:17.799Z,113.81
2023-04-02T12:11:17.842Z,117.40
2023-04-02T12:12:17.849Z,119.63
2023-04-02T12:13:17.863Z,120.72
2023-04-02T12:14:17.914Z,118.68
2023-04-02T12:15:17.921Z,118.97
2023-04-02T12:16:18.006Z,119.57
2023-04-02T12:17:18.104Z,119.58
2023-04-02T12:18:18.096Z,116.81
2023-04-02T12:19:18.100Z,120.56
2023-04-02T12:20:18.105Z,121.49
2023-04-02T12:21:18.217Z,121.37
2023-04-02T12:22:18.217Z,124.60
2023-04-02T12:23:18.283Z,118.25
2023-04-02T12:24:18.288Z,122.54
2023-04-02T12:25:18.349Z,122.57
2023-04-02T12:26:18.347Z,123.29
2023-04-02T12:27:18.408Z,125.82
2023-04-02T12:28:18.533Z,122.61
2023-04-02T12:29:18.511Z,122.78
2023-04-02T12:30:18.558Z,124.20
2023-04-02T12:31:18.621Z,124.90